• Join FlightAware (Why Join?)
  • Login
  • US Flag 
04:31PM EDT


 

Airport Tracker/Info


-or-


 

Live Flight TrackerFlight Track Log ✈ TAM3226 ✈ 25-Sep-2013 ✈ SBSP / CGH - SBCF / CNF

Flight Track Log - Related Links

Times and Time Zones

All times are in EDT time to prevent confusion due to time zone crossing. See the TAM3226 flight status page for this flight to view local times or setup timezone preferences in your user account.

Time Position Orientation Groundspeed Altitude Reporting Facility
EDT Latitude Longitude Course Direction KTS MPH feet Rate Location/Type
07:24PM -23.6220 -46.6600 335° Northwest  Level FlightAware
07:27PM -23.4531 -46.5423 33° Northeast  Level Estimated
07:28PM -23.3846 -46.4946 33° Northeast  Level Estimated
07:29PM -23.3161 -46.4470 33° Northeast  Level Estimated
07:29PM -23.6220 -46.6610 33° Northeast  Level FlightAware
07:32PM -23.4750 -46.5591 33° Northeast  Level Estimated
07:32PM -23.6200 -46.6610 33° Northeast  Level FlightAware
07:33PM -23.6440 -46.6440 146° Southeast 158 182 3,500 2,640 Climbing FlightAware
07:33PM -23.6480 -46.6350 116° Southeast 172 198 3,900 1,620 Climbing FlightAware
07:33PM -23.6490 -46.6300 102° East 186 214 4,000 2,340 Climbing FlightAware
07:34PM -23.6400 -46.6110 63° Northeast 217 250 5,000 3,000 Climbing FlightAware
07:34PM -23.6320 -46.6050 34° Northeast 218 251 5,500 3,300 Climbing FlightAware
07:34PM -23.6220 -46.5980 33° Northeast 218 251 6,100 2,520 Climbing FlightAware
07:34PM -23.6170 -46.5910 52° Northeast 209 241 6,400 2,220 Climbing FlightAware
07:34PM -23.6130 -46.5850 54° Northeast 209 241 6,700 1,980 Climbing FlightAware
07:34PM -23.6110 -46.5770 75° East 203 234 6,900 600 Climbing FlightAware
07:35PM -23.6070 -46.5530 80° East 244 281 7,000 600 Climbing FlightAware
07:35PM -23.6000 -46.5280 73° East 265 305 7,300 1,860 Climbing FlightAware
07:35PM -23.5940 -46.5010 76° East 282 325 8,300 2,400 Climbing FlightAware
07:36PM -23.5860 -46.4660 76° East 317 365 9,100 2,040 Climbing FlightAware
07:36PM -23.5790 -46.4350 76° East 323 372 9,800 1,020 Climbing FlightAware
07:37PM -23.5670 -46.3840 76° East 324 373 10,000 1,020 Climbing FlightAware
07:37PM -23.5530 -46.3230 76° East 363 418 11,000 2,040 Climbing FlightAware
07:38PM -23.5350 -46.2720 69° East 374 430 12,300 2,640 Climbing FlightAware
07:38PM -23.5260 -46.2610 48° Northeast 372 428 12,700 3,120 Climbing FlightAware
07:38PM -23.5080 -46.2480 34° Northeast 361 415 13,400 3,120 Climbing FlightAware
07:38PM -23.4890 -46.2430 14° North 353 406 14,000 2,880 Climbing FlightAware
07:39PM -23.4280 -46.2320 North 360 414 15,800 2,820 Climbing FlightAware
07:39PM -23.3700 -46.2210 10° North 371 427 17,400 2,400 Climbing FlightAware
07:40PM -23.3150 -46.2120 North 387 445 18,500 1,980 Climbing FlightAware
07:41PM -23.2510 -46.2000 10° North 406 467 19,700 2,160 Climbing FlightAware
07:41PM -23.1840 -46.1880 North 405 466 21,100 2,220 Climbing FlightAware
07:42PM -23.1180 -46.1760 North 424 488 22,300 2,100 Climbing FlightAware
07:42PM -23.0770 -46.1600 20° North 437 503 23,100 1,980 Climbing FlightAware
07:43PM -23.0080 -46.1110 33° Northeast 458 527 24,300 1,860 Climbing FlightAware
07:43PM -22.9520 -46.0740 31° Northeast 455 524 25,300 1,800 Climbing FlightAware
07:44PM -22.8880 -46.0300 32° Northeast 470 541 26,300 1,500 Climbing FlightAware
07:44PM -22.8220 -45.9860 32° Northeast 477 549 27,100 1,320 Climbing FlightAware
07:45PM -22.7540 -45.9390 33° Northeast 495 570 27,900 1,500 Climbing FlightAware
07:46PM -22.6860 -45.8940 31° Northeast 498 573 28,900 1,620 Climbing FlightAware
07:46PM -22.6160 -45.8460 32° Northeast 498 573 29,800 1,440 Climbing FlightAware
07:47PM -22.5460 -45.7990 32° Northeast 512 589 30,600 1,680 Climbing FlightAware
07:47PM -22.4770 -45.7520 32° Northeast 500 575 31,800 2,040 Climbing FlightAware
07:48PM -22.4060 -45.7040 32° Northeast 494 568 33,000 1,920 Climbing FlightAware
07:48PM -22.3360 -45.6570 32° Northeast 492 566 34,100 1,740 Climbing FlightAware
07:49PM -22.2660 -45.6100 32° Northeast 496 571 35,100 1,500 Climbing FlightAware
07:50PM -22.2020 -45.5670 32° Northeast 496 571 35,900 1,200 Climbing FlightAware
07:50PM -22.1450 -45.5290 32° Northeast 492 566 36,400 960 Climbing FlightAware
07:51PM -22.0690 -45.4780 32° Northeast 498 573 37,000 480 Climbing FlightAware
07:51PM -22.0090 -45.4380 32° Northeast 498 573 37,000  Level FlightAware
07:52PM -21.9100 -45.3790 29° Northeast 493 567 37,000  Level FlightAware
07:53PM -21.8280 -45.3320 28° Northeast 489 563 37,000  Level FlightAware
07:53PM -21.7690 -45.2990 27° Northeast 490 564 37,000  Level FlightAware
07:54PM -21.6950 -45.2570 28° Northeast 495 570 37,000 -360 Level FlightAware
07:54PM -21.6440 -45.2280 28° Northeast 495 570 36,600 -720 Descending FlightAware
07:55PM -21.5670 -45.1850 27° Northeast 482 555 36,100 -960 Descending FlightAware
07:56PM -21.5020 -45.1480 28° Northeast 480 552 35,500 -1,200 Descending FlightAware
07:56PM -21.4140 -45.0980 28° Northeast 478 550 34,800 -1,500 Descending FlightAware
07:57PM -21.3360 -45.0540 28° Northeast 479 551 33,700 -1,860 Descending FlightAware
07:57PM -21.2750 -45.0200 27° Northeast 476 548 32,500 -2,280 Descending FlightAware
07:58PM -21.2010 -44.9780 28° Northeast 478 550 31,200 -2,280 Descending FlightAware
07:59PM -21.1330 -44.9400 28° Northeast 469 540 30,000 -1,980 Descending FlightAware
07:59PM -21.0660 -44.9030 27° Northeast 460 529 28,900 -1,920 Descending FlightAware
08:02PM -20.9233 -44.8090 32° Northeast  Level Estimated
08:03PM -20.8643 -44.7702 32° Northeast  Level Estimated
08:04PM -20.8052 -44.7314 32° Northeast  Level Estimated
08:05PM -20.7461 -44.6926 32° Northeast  Level Estimated
08:06PM -20.6871 -44.6538 32° Northeast  Level Estimated
08:07PM -20.6280 -44.6151 32° Northeast  Level Estimated
08:08PM -20.5689 -44.5764 32° Northeast  Level Estimated
08:09PM -20.5098 -44.5378 31° Northeast  Level Estimated
08:10PM -20.4506 -44.4991 31° Northeast  Level Estimated
08:11PM -20.3915 -44.4605 31° Northeast  Level Estimated
08:12PM -20.3324 -44.4220 31° Northeast  Level Estimated
08:13PM -20.2733 -44.3834 31° Northeast  Level Estimated
08:14PM -20.2141 -44.3449 31° Northeast  Level Estimated
08:15PM -20.1549 -44.3064 31° Northeast  Level Estimated
08:16PM -20.0958 -44.2680 31° Northeast  Level Estimated
08:17PM -20.0366 -44.2295 31° Northeast  Level Estimated
08:18PM -19.9774 -44.1912 31° Northeast  Level Estimated
08:19PM -19.9182 -44.1528 31° Northeast  Level Estimated
08:20PM -19.8590 -44.1144 31° Northeast  Level Estimated
08:21PM -19.7998 -44.0761 31° Northeast  Level Estimated
08:22PM -19.7406 -44.0378 31° Northeast  Level Estimated
08:23PM -19.6814 -43.9996 31° Northeast  Level Estimated
08:23PM -19.6360 -43.9630 31° Northeast  Level FlightAware
08:26PM -19.6338 -43.9689 292° West  Level Estimated
08:27PM -19.6338 -43.9689 90° East  Level Estimated
08:28PM -19.6338 -43.9689 90° East  Level Estimated
08:32PM -19.6320 -43.9650 270° West  Level FlightAware
08:36PM -19.6320 -43.9640 90° East  Level FlightAware
08:37PM -19.6320 -43.9650 270° West  Level FlightAware